Batesburg-Leesville, South Carolina
Current Conditions -  °F | °C
As of 4:56 AM on Sunday 25 Jan 2015 (Local Time) from KCAE Reporting Station
Clear Clear  
Wind Chill: 27°   Ceiling: Unl
Heat Index: 32°   Visibility: 10mi
Dew Point: 29°   Wind: 5mph
Humidity: 88%   Direction: 190°S
Pressure: 29.94"   Gusts: NA
Location:  33.8822°N, 81.433°W
Report Text: KCAE 250956Z 19004KT 10SM CLR 00/M02 A2994 RMK AO2 SLP137 T00001017 $
Loading
Personal Weather Stations






























Interactive Weather Map New forecast layout! Learn more

10-Day Weather Forecast

Advertisements
Track Severe Weather on mobile